Time;durP1;ratioP1;P1;durP2;ratioP2;P2;SDS_P1;SDS_P2;PMS_P1;PMS_P2;Temp;Humidity;BMP_temperature;BMP_pressure;BME280_temperature;BME280_humidity;BME280_pressure;Samples;Min_cycle;Max_cycle;Signal;HPM_P1;HPM_P2
2022/01/05 00:00:32;;;;;;;13.82;2.30;;;;;;;8.46;60.10;98728.31;4896082;28;121347;-93
2022/01/05 00:02:58;;;;;;;11.38;2.33;;;;;;;8.39;59.61;98728.75;4871395;28;118556;-93
2022/01/05 00:05:24;;;;;;;13.43;2.58;;;;;;;8.46;60.27;98728.31;4877358;28;121212;-94
2022/01/05 00:07:49;;;;;;;16.27;2.97;;;;;;;8.40;59.99;98724.03;4870661;28;123057;-93
2022/01/05 00:10:15;;;;;;;15.45;2.70;;;;;;;8.40;59.57;98705.66;4891408;28;119597;-94
2022/01/05 00:12:41;;;;;;;15.07;3.08;;;;;;;8.33;59.36;98703.31;4864577;28;122280;-93
2022/01/05 00:15:07;;;;;;;13.35;2.92;;;;;;;8.22;59.31;98686.81;4879668;28;121374;-93
2022/01/05 00:17:33;;;;;;;14.02;3.03;;;;;;;8.31;59.70;98703.06;4847225;28;119235;-94
2022/01/05 00:19:58;;;;;;;16.20;2.95;;;;;;;8.26;59.62;98709.94;4869584;28;120939;-93
2022/01/05 00:22:24;;;;;;;18.35;2.83;;;;;;;8.10;59.87;98677.78;4877567;28;120401;-94
2022/01/05 00:24:49;;;;;;;15.02;2.58;;;;;;;7.89;60.09;98649.03;4896260;28;121425;-94
2022/01/05 00:27:16;;;;;;;12.52;2.97;;;;;;;8.14;59.72;98691.97;4858138;28;121733;-93
2022/01/05 00:29:41;;;;;;;14.93;3.05;;;;;;;8.13;60.01;98687.75;4884408;28;119723;-93
2022/01/05 00:32:08;;;;;;;16.65;3.05;;;;;;;8.15;60.41;98681.78;4857278;28;122102;-94
2022/01/05 00:34:35;;;;;;;16.92;3.28;;;;;;;7.99;60.25;98662.03;4883493;28;121684;-94
2022/01/05 00:37:01;;;;;;;17.02;3.20;;;;;;;7.89;60.07;98649.78;4858036;28;119619;-94
2022/01/05 00:39:26;;;;;;;16.33;3.25;;;;;;;8.05;59.88;98680.47;4880883;28;120806;-93
2022/01/05 00:41:52;;;;;;;16.95;3.22;;;;;;;7.87;60.50;98654.97;4871773;28;121834;-93
2022/01/05 00:44:19;;;;;;;17.73;3.10;;;;;;;7.97;60.26;98672.69;4871730;28;119511;-93
2022/01/05 00:46:45;;;;;;;15.95;3.55;;;;;;;7.80;59.94;98643.69;4895740;28;120279;-94
2022/01/05 00:49:11;;;;;;;23.20;4.78;;;;;;;7.93;59.90;98661.22;4884773;28;119106;-92
2022/01/05 00:51:38;;;;;;;23.13;5.38;;;;;;;7.66;60.25;98629.69;4867120;28;121078;-93
2022/01/05 00:54:04;;;;;;;25.98;4.45;;;;;;;7.87;59.74;98663.16;4862099;28;121548;-93
2022/01/05 00:56:30;;;;;;;23.50;3.97;;;;;;;7.91;60.63;98673.84;4898956;28;119120;-93
2022/01/05 00:58:56;;;;;;;24.05;4.35;;;;;;;7.95;60.67;98660.75;4866280;28;121103;-93
2022/01/05 01:01:21;;;;;;;27.00;7.07;;;;;;;7.89;62.01;98644.31;4869125;28;121647;-93
2022/01/05 01:03:48;;;;;;;28.75;6.45;;;;;;;8.14;62.05;98659.19;4876019;28;119251;-93
2022/01/05 01:06:13;;;;;;;24.23;4.25;;;;;;;8.26;63.11;98660.03;4867601;28;121877;-93
2022/01/05 01:08:39;;;;;;;26.80;4.60;;;;;;;8.20;63.14;98627.22;4880192;28;119376;-94
2022/01/05 01:11:05;;;;;;;23.25;4.38;;;;;;;8.48;61.96;98649.34;4850869;28;120990;-93
2022/01/05 01:13:30;;;;;;;21.23;4.50;;;;;;;8.52;63.57;98638.97;4866429;28;122038;-92
2022/01/05 01:15:56;;;;;;;20.23;4.07;;;;;;;8.59;62.06;98626.84;4864602;28;119341;-93
2022/01/05 01:18:22;;;;;;;16.73;3.65;;;;;;;8.59;60.22;98596.78;4881320;28;120969;-93
2022/01/05 01:20:49;;;;;;;18.35;3.35;;;;;;;8.81;60.62;98626.22;4869949;28;121403;-93
2022/01/05 01:23:18;;;;;;;18.30;3.50;;;;;;;8.82;60.45;98622.25;4871766;28;119612;-93
2022/01/05 01:25:45;;;;;;;22.42;3.83;;;;;;;8.86;61.18;98623.53;4884942;28;119717;-92
2022/01/05 01:28:11;;;;;;;15.43;3.05;;;;;;;8.78;60.61;98597.16;4861903;28;119483;-92
2022/01/05 01:30:36;;;;;;;16.65;3.92;;;;;;;8.83;61.65;98585.50;4871394;28;120947;-93
2022/01/05 01:33:03;;;;;;;19.25;4.00;;;;;;;9.15;64.35;98636.13;4868979;28;121468;-93
2022/01/05 01:35:28;;;;;;;16.95;3.67;;;;;;;9.22;63.19;98621.97;4900483;28;119410;-92
2022/01/05 01:37:55;;;;;;;19.23;3.80;;;;;;;9.29;62.68;98598.16;4886197;28;119830;-94
2022/01/05 01:40:20;;;;;;;14.13;2.75;;;;;;;9.25;63.72;98600.38;4882533;28;121850;-93
2022/01/05 01:42:47;;;;;;;14.15;2.95;;;;;;;9.17;63.04;98570.72;4865824;28;119478;-92
2022/01/05 01:45:16;;;;;;;14.63;2.45;;;;;;;9.22;62.65;98577.47;4862477;28;121174;-94
2022/01/05 01:47:42;;;;;;;12.52;3.08;;;;;;;9.51;62.72;98609.91;4865321;28;121613;-92
2022/01/05 01:50:10;;;;;;;15.75;3.22;;;;;;;9.46;62.12;98596.19;4860434;28;121124;-93
2022/01/05 01:52:36;;;;;;;16.60;4.05;;;;;;;9.41;61.97;98584.00;4908124;28;122968;-95
2022/01/05 01:55:06;;;;;;;16.33;3.13;;;;;;;9.38;60.35;98585.00;4870756;28;119355;-92
2022/01/05 01:57:38;;;;;;;18.38;4.10;;;;;;;9.45;60.40;98586.50;4846690;28;121137;-93
2022/01/05 02:00:05;;;;;;;18.25;3.75;;;;;;;9.44;62.01;98588.47;4876851;28;122230;-93
2022/01/05 02:02:38;;;;;;;18.52;3.78;;;;;;;9.36;61.14;98582.00;4884585;28;119354;-92
2022/01/05 02:05:06;;;;;;;20.63;4.45;;;;;;;9.35;60.89;98580.50;4862151;28;121466;-92
2022/01/05 02:07:31;;;;;;;21.25;4.45;;;;;;;9.34;61.44;98564.59;4845718;28;121984;-92
2022/01/05 02:09:57;;;;;;;18.85;3.42;;;;;;;9.22;61.29;98548.13;4872870;28;119482;-94
2022/01/05 02:12:26;;;;;;;22.65;4.28;;;;;;;9.38;64.34;98559.63;4878181;28;121454;-92
2022/01/05 02:14:53;;;;;;;20.17;4.57;;;;;;;9.31;64.43;98551.91;4845883;28;121294;-91
2022/01/05 02:17:23;;;;;;;26.45;5.07;;;;;;;9.28;63.31;98555.63;4884394;28;119712;-92
2022/01/05 02:19:49;;;;;;;19.60;4.28;;;;;;;9.41;62.29;98561.38;4861768;28;123352;-93
2022/01/05 02:22:15;;;;;;;20.65;4.28;;;;;;;9.44;63.08;98563.84;4862218;28;119619;-91
2022/01/05 02:24:46;;;;;;;20.58;4.20;;;;;;;9.50;62.07;98563.91;4860687;28;120904;-92
2022/01/05 02:27:15;;;;;;;19.75;3.92;;;;;;;9.50;62.55;98555.69;4860326;28;122980;-94
2022/01/05 02:29:41;;;;;;;21.02;4.50;;;;;;;9.45;61.34;98538.00;4876224;28;119463;-92
2022/01/05 02:32:07;;;;;;;20.25;3.97;;;;;;;9.54;63.42;98531.56;4881923;28;121116;-93
2022/01/05 02:34:33;;;;;;;22.98;4.28;;;;;;;9.55;61.23;98530.31;4846510;28;119472;-92
2022/01/05 02:36:59;;;;;;;21.25;5.15;;;;;;;9.51;62.28;98518.88;4900335;28;119229;-93
2022/01/05 02:39:24;;;;;;;24.23;4.55;;;;;;;9.47;61.38;98494.50;4877284;28;120309;-91
2022/01/05 02:41:52;;;;;;;20.80;4.05;;;;;;;9.54;60.57;98498.72;4875218;28;119932;-91
2022/01/05 02:44:17;;;;;;;23.15;5.20;;;;;;;9.54;61.28;98495.97;4866143;28;120941;-90
2022/01/05 02:46:43;;;;;;;17.48;3.97;;;;;;;9.62;62.32;98496.97;4858747;28;121815;-93
2022/01/05 02:49:08;;;;;;;24.55;5.20;;;;;;;9.76;63.81;98500.72;4853693;28;119354;-93
2022/01/05 02:51:34;;;;;;;22.02;4.28;;;;;;;9.58;64.10;98485.53;4861928;28;121016;-92
2022/01/05 02:53:59;;;;;;;28.52;5.50;;;;;;;9.68;63.76;98486.78;4881736;28;121939;-91
2022/01/05 02:56:28;;;;;;;22.02;5.03;;;;;;;9.66;65.80;98494.75;4887488;28;119555;-91
2022/01/05 02:58:54;;;;;;;23.88;4.53;;;;;;;9.81;65.91;98495.25;4845517;28;123616;-92
2022/01/05 03:01:20;;;;;;;24.10;4.60;;;;;;;10.06;68.06;98514.66;4882571;28;119489;-92
2022/01/05 03:03:45;;;;;;;25.45;4.60;;;;;;;10.05;68.42;98502.22;4847417;28;122024;-92
2022/01/05 03:06:14;;;;;;;18.10;4.03;;;;;;;10.10;65.74;98501.47;4859788;28;122058;-92
2022/01/05 03:08:40;;;;;;;17.40;3.55;;;;;;;10.12;67.59;98501.72;4882481;28;120467;-92
2022/01/05 03:11:05;;;;;;;13.95;3.45;;;;;;;10.24;65.86;98511.44;4867460;28;119511;-91
2022/01/05 03:13:33;;;;;;;19.80;4.03;;;;;;;10.31;67.45;98513.69;4858607;28;121510;-92
2022/01/05 03:15:59;;;;;;;21.48;4.32;;;;;;;10.29;68.04;98499.72;4862799;28;120728;-92
2022/01/05 03:18:25;;;;;;;17.08;3.50;;;;;;;10.44;65.69;98511.19;4858949;28;121974;-91
2022/01/05 03:20:53;;;;;;;21.92;4.00;;;;;;;10.24;64.21;98481.31;4879386;28;119506;-92
2022/01/05 03:23:19;;;;;;;27.67;4.72;;;;;;;10.23;65.88;98499.00;4863886;28;122182;-94
2022/01/05 03:25:45;;;;;;;25.55;4.43;;;;;;;10.18;65.91;98505.22;4891603;28;120410;-94
2022/01/05 03:28:11;;;;;;;18.88;3.60;;;;;;;10.27;66.40;98512.44;4867845;28;119325;-92
2022/01/05 03:30:37;;;;;;;24.23;4.13;;;;;;;9.99;68.00;98466.63;4886251;28;118758;-92
2022/01/05 03:33:19;;;;;;;;;;;;;;;;;;;;;
2022/01/05 03:35:37;;;;;;;17.17;2.97;;;;;;;10.32;66.98;98500.72;4889661;28;119567;-92
2022/01/05 03:38:06;;;;;;;17.80;3.60;;;;;;;10.36;67.27;98504.69;4891601;28;120504;-92
2022/01/05 03:40:34;;;;;;;14.68;3.17;;;;;;;10.41;67.30;98509.44;4867471;28;119400;-92
2022/01/05 03:43:00;;;;;;;12.50;2.42;;;;;;;10.41;65.51;98500.47;4864867;28;120564;-91
2022/01/05 03:45:26;;;;;;;13.68;2.60;;;;;;;10.37;67.46;98500.72;4869327;28;122961;-91
2022/01/05 03:47:51;;;;;;;13.20;2.17;;;;;;;10.08;64.68;98452.66;4883158;28;119298;-91
2022/01/05 03:50:17;;;;;;;11.73;2.50;;;;;;;10.35;65.06;98502.47;4867258;28;121048;-91
2022/01/05 03:52:43;;;;;;;15.43;2.80;;;;;;;10.08;65.10;98451.91;4875318;28;121897;-91
2022/01/05 03:55:09;;;;;;;14.88;2.50;;;;;;;10.32;66.76;98498.72;4895430;28;119403;-91
2022/01/05 03:57:34;;;;;;;12.35;2.35;;;;;;;10.13;64.81;98475.81;4867191;28;120886;-92
2022/01/05 04:00:00;;;;;;;11.77;2.42;;;;;;;10.28;64.31;98494.75;4856606;28;119443;-93
2022/01/05 04:02:26;;;;;;;11.43;2.25;;;;;;;10.04;64.33;98478.81;4896064;28;120424;-92
2022/01/05 04:04:52;;;;;;;11.43;2.08;;;;;;;10.16;64.26;98497.47;4863091;28;122062;-93
2022/01/05 04:07:17;;;;;;;13.95;2.30;;;;;;;10.06;63.91;98482.53;4879575;28;119406;-92
2022/01/05 04:09:44;;;;;;;12.10;2.30;;;;;;;10.02;64.21;98487.53;4863390;28;122064;-93
2022/01/05 04:12:10;;;;;;;11.23;2.03;;;;;;;10.08;65.11;98506.69;4876440;28;121838;-92
2022/01/05 04:14:35;;;;;;;10.68;2.50;;;;;;;9.95;66.85;98482.56;4861751;28;119172;-92
2022/01/05 04:17:01;;;;;;;12.25;2.83;;;;;;;10.03;67.37;98491.03;4846812;28;120865;-92
2022/01/05 04:19:27;;;;;;;15.32;2.38;;;;;;;10.16;66.65;98507.69;4881464;28;120940;-93
2022/01/05 04:21:52;;;;;;;13.27;2.40;;;;;;;10.25;66.72;98515.69;4863011;28;120899;-92
2022/01/05 04:24:18;;;;;;;16.23;2.42;;;;;;;10.25;65.80;98520.41;4869069;28;122949;-92
2022/01/05 04:26:43;;;;;;;12.32;2.55;;;;;;;10.04;65.59;98485.03;4883723;28;119379;-92
2022/01/05 04:29:10;;;;;;;9.93;2.13;;;;;;;10.21;65.96;98511.72;4868984;28;121177;-92
2022/01/05 04:31:37;;;;;;;13.85;2.75;;;;;;;10.19;66.43;98514.91;4879576;28;121482;-92
2022/01/05 04:34:02;;;;;;;11.60;2.53;;;;;;;10.30;65.99;98527.88;4868651;28;118560;-92
2022/01/05 04:36:28;;;;;;;12.85;2.45;;;;;;;10.33;64.64;98522.13;4855341;28;120954;-92
2022/01/05 04:38:54;;;;;;;12.52;2.50;;;;;;;10.26;64.44;98528.13;4862799;28;122146;-92
2022/01/05 04:41:19;;;;;;;15.93;2.53;;;;;;;10.09;67.12;98492.50;4854545;28;119584;-93
2022/01/05 04:43:45;;;;;;;13.23;2.90;;;;;;;10.27;66.49;98528.88;4879879;28;122460;-91
2022/01/05 04:46:11;;;;;;;12.88;2.70;;;;;;;10.32;66.42;98519.91;4884135;28;119859;-92
2022/01/05 04:48:37;;;;;;;12.45;2.15;;;;;;;10.22;65.66;98504.97;4878569;28;119588;-93
2022/01/05 04:51:03;;;;;;;18.40;3.58;;;;;;;10.40;67.07;98538.06;4879633;28;119257;-93
2022/01/05 04:53:29;;;;;;;17.52;2.90;;;;;;;10.44;68.76;98535.84;4869932;28;119519;-93
2022/01/05 04:55:55;;;;;;;11.98;2.35;;;;;;;10.33;67.42;98527.63;4894772;28;119477;-92
2022/01/05 04:58:21;;;;;;;15.95;2.70;;;;;;;10.30;69.76;98539.59;4878783;28;121137;-92
2022/01/05 05:00:47;;;;;;;17.20;2.92;;;;;;;10.26;68.18;98522.66;4864354;28;119470;-92
2022/01/05 05:03:12;;;;;;;18.20;2.65;;;;;;;10.38;67.43;98548.03;4869073;28;121709;-89
2022/01/05 05:05:39;;;;;;;16.50;2.22;;;;;;;10.23;68.57;98520.91;4861842;28;120193;-92
2022/01/05 05:08:05;;;;;;;14.65;2.22;;;;;;;10.37;67.81;98544.56;4868463;28;120880;-91
2022/01/05 05:10:30;;;;;;;12.32;2.55;;;;;;;10.30;67.07;98534.09;4862584;28;122967;-93
2022/01/05 05:12:56;;;;;;;15.63;2.13;;;;;;;10.24;65.43;98530.63;4862452;28;119609;-91
2022/01/05 05:15:22;;;;;;;13.82;2.25;;;;;;;10.30;65.47;98534.09;4870862;28;120912;-92
2022/01/05 05:17:47;;;;;;;13.70;2.40;;;;;;;10.26;65.05;98539.09;4863074;28;120033;-93
2022/01/05 05:20:13;;;;;;;16.05;2.67;;;;;;;10.29;66.50;98549.06;4893211;28;119645;-93
2022/01/05 05:22:39;;;;;;;12.75;2.58;;;;;;;10.25;66.94;98550.56;4870899;28;121080;-93
2022/01/05 05:25:06;;;;;;;12.40;2.20;;;;;;;10.19;66.63;98536.09;4864859;28;119606;-92
2022/01/05 05:27:31;;;;;;;12.63;2.55;;;;;;;9.99;65.44;98520.66;4882751;28;121111;-93
2022/01/05 05:29:57;;;;;;;16.60;2.20;;;;;;;10.02;66.48;98527.88;4868851;28;123151;-93
2022/01/05 05:32:23;;;;;;;9.57;1.73;;;;;;;9.94;67.06;98515.94;4882586;28;119426;-92
2022/01/05 05:34:49;;;;;;;11.27;1.98;;;;;;;9.99;64.95;98535.09;4856432;28;122007;-90
2022/01/05 05:37:17;;;;;;;11.57;2.15;;;;;;;9.86;67.99;98518.41;4871132;28;121920;-92
2022/01/05 05:39:43;;;;;;;10.02;2.28;;;;;;;9.95;66.43;98526.38;4877041;28;119338;-93
2022/01/05 05:42:09;;;;;;;10.98;1.90;;;;;;;10.08;67.18;98547.78;4861811;28;122468;-92
2022/01/05 05:44:38;;;;;;;9.38;1.70;;;;;;;9.88;66.09;98524.13;4866377;28;121768;-92
2022/01/05 05:47:05;;;;;;;7.88;1.90;;;;;;;9.90;64.93;98529.84;4845526;28;121080;-92
2022/01/05 05:49:31;;;;;;;11.07;1.80;;;;;;;10.01;64.22;98545.53;4860437;28;122923;-91
2022/01/05 05:52:00;;;;;;;10.02;1.70;;;;;;;9.96;64.23;98555.25;4866481;28;120524;-93
2022/01/05 05:54:25;;;;;;;11.50;1.98;;;;;;;9.92;64.28;98554.00;4846928;28;121026;-93
2022/01/05 05:56:51;;;;;;;10.10;1.85;;;;;;;9.97;63.68;98561.47;4878301;28;120255;-93
2022/01/05 05:59:17;;;;;;;12.80;1.92;;;;;;;9.88;63.22;98565.19;4851524;28;119154;-92
2022/01/05 06:01:42;;;;;;;11.43;1.52;;;;;;;9.90;63.19;98557.22;4880496;28;119339;-94
2022/01/05 06:04:08;;;;;;;14.55;1.98;;;;;;;9.94;63.63;98557.75;4871099;28;121619;-92
2022/01/05 06:06:34;;;;;;;8.93;1.73;;;;;;;9.79;63.22;98529.84;4870707;28;119684;-93
2022/01/05 06:08:59;;;;;;;11.02;2.35;;;;;;;9.75;62.63;98541.06;4862108;28;121809;-92
2022/01/05 06:11:25;;;;;;;7.35;1.63;;;;;;;9.66;63.19;98546.00;4879076;28;120013;-89
2022/01/05 06:13:52;;;;;;;5.47;1.58;;;;;;;9.46;63.15;98525.84;4879686;28;120790;-91
2022/01/05 06:16:22;;;;;;;12.35;1.98;;;;;;;9.53;66.86;98527.31;4861311;28;121753;-92
2022/01/05 06:18:48;;;;;;;13.07;2.05;;;;;;;9.54;66.19;98523.34;4878511;28;119772;-92
2022/01/05 06:21:13;;;;;;;7.10;1.40;;;;;;;9.75;66.07;98562.94;4865800;28;119918;-92
2022/01/05 06:23:39;;;;;;;5.15;1.20;;;;;;;9.69;64.13;98551.22;4860520;28;123204;-92
2022/01/05 06:26:05;;;;;;;8.25;1.58;;;;;;;9.31;63.45;98508.13;4872963;28;119841;-92
2022/01/05 06:28:30;;;;;;;5.93;1.40;;;;;;;9.43;63.41;98537.75;4881705;28;120390;-92
2022/01/05 06:30:59;;;;;;;7.78;1.35;;;;;;;9.55;63.50;98565.88;4853285;28;119271;-90
2022/01/05 06:33:24;;;;;;;7.78;1.67;;;;;;;9.24;62.60;98523.03;4875242;28;119957;-94
2022/01/05 06:35:50;;;;;;;8.15;1.45;;;;;;;9.50;62.65;98561.16;4861679;28;122934;-92
2022/01/05 06:38:16;;;;;;;10.15;1.50;;;;;;;9.36;62.44;98549.16;4861752;28;119872;-92
2022/01/05 06:40:44;;;;;;;10.85;2.08;;;;;;;9.38;62.82;98554.91;4877826;28;122653;-93
2022/01/05 06:43:10;;;;;;;9.88;1.60;;;;;;;9.16;62.73;98539.16;4887426;28;120449;-93
2022/01/05 06:45:36;;;;;;;13.43;2.10;;;;;;;9.21;62.78;98548.63;4892676;28;119343;-92
2022/01/05 06:48:01;;;;;;;15.23;2.17;;;;;;;9.34;63.62;98568.06;4869649;28;121829;-91
2022/01/05 06:50:27;;;;;;;16.70;2.88;;;;;;;9.38;63.40;98574.03;4887298;28;122147;-93
2022/01/05 06:52:55;;;;;;;16.65;2.60;;;;;;;9.41;63.14;98572.31;4862832;28;122007;-92
2022/01/05 06:55:21;;;;;;;12.27;2.15;;;;;;;9.43;63.79;98578.03;4903214;28;120518;-92
2022/01/05 06:57:47;;;;;;;19.73;3.50;;;;;;;9.37;63.32;98569.81;4888946;28;119545;-92
2022/01/05 07:00:13;;;;;;;13.60;2.72;;;;;;;9.41;63.36;98583.25;4884736;28;120203;-91
2022/01/05 07:02:40;;;;;;;20.67;3.45;;;;;;;9.40;63.97;98577.03;4870747;28;121841;-92
2022/01/05 07:05:09;;;;;;;14.60;3.05;;;;;;;9.45;63.80;98586.50;4877105;28;119367;-90
2022/01/05 07:07:36;;;;;;;13.77;3.20;;;;;;;9.46;63.82;98585.25;4884163;28;119218;-92
2022/01/05 07:10:07;;;;;;;22.67;3.67;;;;;;;9.25;63.73;98559.34;4881401;28;121924;-93
2022/01/05 07:12:33;;;;;;;16.52;3.05;;;;;;;9.33;63.82;98563.09;4893790;28;119128;-94
2022/01/05 07:14:59;;;;;;;19.88;3.67;;;;;;;9.38;63.82;98576.78;4864053;28;122046;-93
2022/01/05 07:17:24;;;;;;;18.67;3.13;;;;;;;9.38;63.49;98573.28;4863927;28;119367;-92
2022/01/05 07:19:50;;;;;;;14.88;3.28;;;;;;;9.45;63.29;98583.75;4876229;28;119202;-93
2022/01/05 07:22:16;;;;;;;18.25;3.50;;;;;;;9.39;63.55;98575.53;4892605;28;122087;-91
2022/01/05 07:24:41;;;;;;;25.05;3.90;;;;;;;9.35;63.31;98577.03;4844330;28;119019;-92
2022/01/05 07:27:07;;;;;;;23.27;4.80;;;;;;;9.36;63.15;98590.22;4850365;28;120366;-93
2022/01/05 07:29:33;;;;;;;26.05;4.85;;;;;;;9.25;64.68;98576.50;4863538;28;122296;-93
2022/01/05 07:31:58;;;;;;;17.38;3.70;;;;;;;9.29;63.85;98577.00;4861069;28;119276;-94
2022/01/05 07:34:27;;;;;;;29.98;4.28;;;;;;;9.20;63.69;98571.72;4858809;28;122807;-92
2022/01/05 07:36:53;;;;;;;22.30;3.90;;;;;;;9.27;63.78;98584.22;4866377;28;119151;-93
2022/01/05 07:39:19;;;;;;;24.35;4.30;;;;;;;9.37;64.35;98602.66;4872021;28;121070;-93
2022/01/05 07:41:44;;;;;;;25.48;4.00;;;;;;;9.35;64.93;98588.72;4897193;28;121171;-92
2022/01/05 07:44:10;;;;;;;25.90;4.72;;;;;;;9.38;66.09;98576.03;4866266;28;121963;-92
2022/01/05 07:46:36;;;;;;;24.00;4.28;;;;;;;9.43;65.74;98588.97;4881528;28;120883;-93
2022/01/05 07:49:02;;;;;;;27.30;4.10;;;;;;;9.30;65.46;98559.34;4876326;28;122096;-92
2022/01/05 07:51:29;;;;;;;20.55;3.55;;;;;;;9.47;65.19;98587.53;4882605;28;119029;-92
2022/01/05 07:53:55;;;;;;;24.80;4.55;;;;;;;9.52;65.01;98595.00;4892747;28;119154;-92
2022/01/05 07:56:21;;;;;;;23.55;3.95;;;;;;;9.53;64.81;98595.75;4872044;28;119507;-91
2022/01/05 07:58:48;;;;;;;27.08;3.85;;;;;;;9.56;64.71;98588.53;4868470;28;121334;-92
2022/01/05 08:01:16;;;;;;;20.83;3.85;;;;;;;9.54;64.67;98599.97;4884360;28;122975;-93
2022/01/05 08:03:41;;;;;;;21.77;3.78;;;;;;;9.52;64.79;98588.78;4876136;28;119396;-92
2022/01/05 08:06:07;;;;;;;19.25;3.92;;;;;;;9.52;64.71;98596.97;4897984;28;119196;-93
2022/01/05 08:08:33;;;;;;;24.58;3.72;;;;;;;9.35;64.36;98574.28;4870115;28;122669;-93
2022/01/05 08:10:58;;;;;;;21.35;3.97;;;;;;;9.27;64.12;98565.06;4855244;28;119718;-93
2022/01/05 08:13:24;;;;;;;17.83;3.00;;;;;;;9.53;64.85;98595.75;4881610;28;120549;-92
2022/01/05 08:15:51;;;;;;;20.38;3.95;;;;;;;9.55;65.69;98609.69;4886751;28;121920;-92
2022/01/05 08:18:18;;;;;;;24.75;4.05;;;;;;;9.51;65.28;98590.75;4874897;28;120852;-93
2022/01/05 08:20:44;;;;;;;15.98;2.90;;;;;;;9.36;65.08;98564.84;4864585;28;121886;-92
2022/01/05 08:23:15;;;;;;;19.08;3.13;;;;;;;9.29;64.82;98551.63;4885958;28;119794;-92
2022/01/05 08:25:40;;;;;;;21.20;3.00;;;;;;;9.61;64.09;98596.75;4882425;28;122125;-93
2022/01/05 08:28:08;;;;;;;18.45;3.30;;;;;;;9.40;63.79;98574.28;4882698;28;120266;-93
2022/01/05 08:30:35;;;;;;;15.98;2.90;;;;;;;9.59;63.65;98604.72;4902555;28;120097;-94
2022/01/05 08:33:03;;;;;;;13.02;2.55;;;;;;;9.40;63.83;98576.28;4870326;28;120884;-91
2022/01/05 08:35:29;;;;;;;13.27;2.75;;;;;;;9.39;63.91;98572.81;4867477;28;122836;-93
2022/01/05 08:37:54;;;;;;;11.60;2.97;;;;;;;9.60;63.78;98589.78;4886091;28;119638;-93
2022/01/05 08:40:23;;;;;;;13.70;2.60;;;;;;;9.71;64.11;98600.03;4897464;28;121255;-93
2022/01/05 08:42:50;;;;;;;15.63;2.78;;;;;;;9.88;65.71;98621.94;4862460;28;119442;-94
2022/01/05 08:45:17;;;;;;;13.95;3.00;;;;;;;9.88;64.87;98616.47;4879656;28;119809;-92
2022/01/05 08:47:47;;;;;;;15.88;2.70;;;;;;;10.19;65.38;98637.44;4863006;28;122144;-94
2022/01/05 08:53:21;;;;;;;15.93;2.50;;;;;;;10.08;69.00;98597.09;4868053;28;121750;-94
2022/01/05 08:56:12;;;;;;;16.55;1.98;;;;;;;10.35;67.93;98634.72;4884216;28;120015;-91
2022/01/05 08:58:49;;;;;;;12.27;1.92;;;;;;;10.11;65.50;98587.88;4887136;28;121140;-94
2022/01/05 09:01:15;;;;;;;6.88;1.38;;;;;;;9.94;64.50;98565.97;4866430;28;120873;-93
2022/01/05 09:03:44;;;;;;;9.45;2.03;;;;;;;10.16;64.01;98614.50;4893726;28;119822;-93
2022/01/05 09:06:10;;;;;;;5.93;1.48;;;;;;;9.89;63.32;98583.13;4880666;28;119526;-93
2022/01/05 09:08:37;;;;;;;9.18;2.10;;;;;;;9.69;63.23;98543.00;4878229;28;123010;-91
2022/01/05 09:11:03;;;;;;;9.68;2.00;;;;;;;9.53;63.39;98547.22;4865891;28;119891;-94
2022/01/05 09:13:29;;;;;;;9.77;2.00;;;;;;;9.40;63.91;98549.66;4868103;28;120807;-92
2022/01/05 09:15:55;;;;;;;8.25;1.77;;;;;;;9.38;63.81;98557.63;4877494;28;121805;-93
2022/01/05 09:18:24;;;;;;;8.73;1.92;;;;;;;9.45;63.50;98562.63;4848482;28;119940;-92
2022/01/05 09:20:49;;;;;;;9.50;1.98;;;;;;;9.69;63.30;98605.97;4897745;28;119908;-95
2022/01/05 09:23:15;;;;;;;8.38;2.00;;;;;;;9.66;63.56;98598.75;4880805;28;120279;-93
2022/01/05 09:25:41;;;;;;;11.10;1.90;;;;;;;9.44;63.11;98579.53;4883906;28;120460;-92
2022/01/05 09:28:26;;;;;;;9.82;2.03;;;;;;;9.34;64.01;98568.06;4863927;28;121796;-94
2022/01/05 09:30:52;;;;;;;13.68;2.35;;;;;;;9.47;64.57;98575.81;4873738;28;118689;-92
2022/01/05 09:36:59;;;;;;;;;;;;;;;9.78;66.00;98608.50;4895325;28;121629;-93
2022/01/05 09:42:39;;;;;;;6.82;1.65;;;;;;;9.90;66.18;98572.91;4899971;28;120436;-93
2022/01/05 09:45:21;;;;;;;8.52;1.85;;;;;;;10.22;66.71;98604.34;4845706;28;122562;-92
2022/01/05 09:47:49;;;;;;;11.10;2.00;;;;;;;10.28;65.49;98607.84;4880629;28;122289;-94
2022/01/05 09:50:15;;;;;;;10.48;2.33;;;;;;;10.21;65.65;98594.63;4890041;28;119463;-94
2022/01/05 09:53:02;;;;;;;12.35;2.20;;;;;;;10.02;65.07;98564.22;4867533;28;118617;-93
2022/01/05 09:55:28;;;;;;;11.00;2.30;;;;;;;10.04;64.89;98555.50;4894442;28;120637;-93
2022/01/05 09:57:54;;;;;;;11.77;2.10;;;;;;;10.29;65.10;98598.38;4852060;28;121824;-95
2022/01/05 10:00:20;;;;;;;11.40;2.10;;;;;;;10.40;66.06;98609.31;4869971;28;119992;-94
2022/01/05 10:02:49;;;;;;;11.60;1.83;;;;;;;9.97;64.64;98531.38;4887051;28;119121;-93
2022/01/05 10:05:16;;;;;;;10.68;1.90;;;;;;;10.43;64.43;98597.38;4877857;28;121771;-94
2022/01/05 10:07:42;;;;;;;12.43;2.00;;;;;;;10.47;64.11;98590.91;4902355;28;119864;-93
2022/01/05 10:10:09;;;;;;;13.27;2.05;;;;;;;10.55;64.14;98613.81;4865828;28;123262;-93
2022/01/05 10:12:35;;;;;;;13.82;1.98;;;;;;;10.52;64.42;98604.59;4866176;28;119406;-94
2022/01/05 10:15:01;;;;;;;9.40;1.85;;;;;;;10.49;64.50;98589.16;4873257;28;120786;-93
2022/01/05 10:18:13;;;;;;;14.35;2.15;;;;;;;10.12;65.83;98537.31;4866245;28;122239;-93
2022/01/05 10:21:03;;;;;;;13.43;2.15;;;;;;;10.58;64.58;98591.63;4845116;28;119522;-92
2022/01/05 10:23:36;;;;;;;13.77;2.90;;;;;;;10.58;65.41;98608.06;4850852;28;121958;-93
2022/01/05 10:26:26;;;;;;;12.02;2.58;;;;;;;10.46;63.77;98595.63;4846348;28;121434;-92
2022/01/05 10:29:01;;;;;;;11.30;2.80;;;;;;;10.53;63.82;98605.34;4851745;28;118914;-94
2022/01/05 10:31:30;;;;;;;9.90;2.35;;;;;;;10.53;64.73;98613.56;4883663;28;119668;-94
2022/01/05 10:34:12;;;;;;;10.75;2.83;;;;;;;10.57;65.63;98620.28;4847033;28;120163;-93
2022/01/05 10:36:47;;;;;;;12.82;2.20;;;;;;;10.62;65.91;98619.53;4850105;28;121224;-91
2022/01/05 10:39:20;;;;;;;10.63;2.70;;;;;;;10.66;65.36;98619.28;4849741;28;122405;-94
2022/01/05 10:41:46;;;;;;;12.02;2.10;;;;;;;10.60;64.99;98607.56;4852355;28;119479;-92
2022/01/05 10:44:20;;;;;;;11.25;2.20;;;;;;;10.67;66.19;98616.03;4860704;28;120980;-94
2022/01/05 10:46:57;;;;;;;8.88;2.08;;;;;;;10.68;64.30;98605.81;4849995;28;123179;-92
2022/01/05 10:49:29;;;;;;;13.05;2.38;;;;;;;10.84;64.70;98628.97;4852688;28;119967;-94
2022/01/05 10:51:57;;;;;;;9.75;2.55;;;;;;;10.82;64.05;98632.22;4835024;28;121222;-94
2022/01/05 10:54:25;;;;;;;9.25;2.10;;;;;;;10.80;65.63;98623.00;4870170;28;120233;-92
2022/01/05 10:56:52;;;;;;;9.15;1.88;;;;;;;10.72;68.40;98595.34;4863763;28;121361;-93
2022/01/05 10:59:35;;;;;;;10.85;2.20;;;;;;;10.94;65.36;98622.72;4864368;28;121537;-90
2022/01/05 11:02:19;;;;;;;11.80;2.42;;;;;;;11.11;64.83;98638.38;4883767;28;119507;-93
2022/01/05 11:04:45;;;;;;;10.70;2.13;;;;;;;11.14;64.03;98627.19;4857781;28;122401;-94
2022/01/05 11:07:22;;;;;;;10.25;2.30;;;;;;;11.25;64.89;98637.34;4851138;28;121963;-95
2022/01/05 11:09:55;;;;;;;10.30;2.13;;;;;;;11.33;65.34;98644.56;4868496;28;119292;-91
2022/01/05 11:12:35;;;;;;;14.05;2.10;;;;;;;11.34;67.78;98648.78;4869082;28;121133;-92
2022/01/05 11:15:26;;;;;;;16.60;2.47;;;;;;;11.36;67.75;98651.06;4871280;28;121985;-95
2022/01/05 11:18:12;;;;;;;9.40;1.90;;;;;;;11.41;67.34;98650.28;4877368;28;119104;-93
2022/01/05 11:20:42;;;;;;;14.25;2.92;;;;;;;11.34;65.59;98635.06;4883590;28;119282;-94
2022/01/05 11:23:08;;;;;;;13.70;2.33;;;;;;;11.35;66.03;98633.81;4883112;28;119402;-94
2022/01/05 11:25:36;;;;;;;10.93;2.33;;;;;;;11.33;64.21;98636.31;4868716;28;120745;-94
2022/01/05 11:28:02;;;;;;;12.40;2.28;;;;;;;11.14;63.56;98623.69;4887887;28;120187;-91
2022/01/05 11:30:28;;;;;;;11.32;2.30;;;;;;;11.37;65.17;98652.56;4876241;28;119237;-93
2022/01/05 11:32:55;;;;;;;10.35;2.10;;;;;;;11.31;64.72;98643.56;4872359;28;121079;-92
2022/01/05 11:35:20;;;;;;;10.45;2.15;;;;;;;11.46;66.53;98649.50;4866833;28;123094;-92